createdAt,value
2022-09-28T00:01:09.552Z,7.67
2022-09-28T00:03:36.989Z,5.57
2022-09-28T00:06:06.418Z,4.53
2022-09-28T00:08:34.910Z,5.03
2022-09-28T00:11:02.479Z,5.23
2022-09-28T00:13:29.779Z,4.20
2022-09-28T00:16:08.075Z,5.00
2022-09-28T00:18:36.043Z,3.90
2022-09-28T00:21:05.666Z,4.90
2022-09-28T00:23:33.217Z,3.80
2022-09-28T00:26:06.387Z,5.13
2022-09-28T00:28:33.081Z,6.03
2022-09-28T00:31:00.816Z,4.43
2022-09-28T00:33:28.210Z,4.27
2022-09-28T00:35:58.638Z,4.10
2022-09-28T00:38:29.472Z,4.40
2022-09-28T00:40:56.526Z,4.50
2022-09-28T00:43:24.969Z,3.87
2022-09-28T00:46:06.464Z,7.43
2022-09-28T00:48:36.123Z,5.07
2022-09-28T00:51:08.195Z,3.60
2022-09-28T00:53:39.077Z,5.37
2022-09-28T00:56:11.088Z,7.50
2022-09-28T00:58:47.752Z,6.00
2022-09-28T01:01:14.772Z,4.53
2022-09-28T01:03:45.221Z,6.00
2022-09-28T01:06:18.554Z,5.50
2022-09-28T01:08:46.415Z,5.37
2022-09-28T01:11:14.049Z,7.57
2022-09-28T01:13:41.808Z,4.07
2022-09-28T01:16:28.617Z,6.03
2022-09-28T01:19:25.081Z,5.23
2022-09-28T01:22:12.811Z,4.37
2022-09-28T01:24:43.116Z,4.90
2022-09-28T01:27:26.589Z,4.63
2022-09-28T01:30:05.928Z,4.13
2022-09-28T01:32:50.844Z,4.97
2022-09-28T01:35:26.947Z,4.57
2022-09-28T01:38:04.592Z,4.20
2022-09-28T01:40:33.447Z,4.17
2022-09-28T01:43:09.376Z,4.00
2022-09-28T01:45:43.945Z,4.77
2022-09-28T01:48:13.845Z,5.63
2022-09-28T01:50:42.875Z,4.27
2022-09-28T01:53:12.547Z,5.80
2022-09-28T01:55:44.967Z,5.83
2022-09-28T01:59:05.995Z,6.03
2022-09-28T02:01:41.563Z,4.70
2022-09-28T02:04:14.788Z,6.27
2022-09-28T02:07:04.303Z,5.03
2022-09-28T02:09:44.908Z,4.33
2022-09-28T02:12:17.472Z,5.63
2022-09-28T02:14:47.708Z,6.70
2022-09-28T02:17:16.059Z,5.43
2022-09-28T02:19:47.171Z,6.43
2022-09-28T02:22:33.458Z,4.67
2022-09-28T02:25:09.319Z,5.00
2022-09-28T02:27:50.933Z,6.00
2022-09-28T02:30:18.163Z,5.50
2022-09-28T02:32:48.923Z,7.00
2022-09-28T02:35:18.349Z,5.33
2022-09-28T02:37:45.971Z,7.20
2022-09-28T02:40:15.714Z,6.53
2022-09-28T02:42:52.833Z,5.30
2022-09-28T02:45:47.795Z,5.83
2022-09-28T02:49:10.899Z,5.07
2022-09-28T02:51:51.980Z,6.20
2022-09-28T02:54:51.684Z,6.60
2022-09-28T02:57:36.249Z,8.47
2022-09-28T03:00:12.064Z,4.53
2022-09-28T03:02:44.472Z,8.17
2022-09-28T03:05:39.701Z,6.20
2022-09-28T03:08:36.659Z,7.07
2022-09-28T03:11:16.518Z,4.40
2022-09-28T03:13:46.680Z,4.73
2022-09-28T03:16:19.595Z,4.50
2022-09-28T03:18:48.732Z,6.17
2022-09-28T03:21:16.244Z,4.10
2022-09-28T03:23:43.357Z,9.23
2022-09-28T03:26:14.582Z,4.87
2022-09-28T03:28:41.205Z,4.83
2022-09-28T03:31:12.015Z,5.40
2022-09-28T03:33:38.768Z,5.80
2022-09-28T03:36:05.899Z,5.40
2022-09-28T03:38:32.644Z,5.67
2022-09-28T03:41:00.535Z,5.83
2022-09-28T03:43:33.132Z,8.87
2022-09-28T03:46:02.905Z,9.87
2022-09-28T03:48:34.729Z,12.70
2022-09-28T03:51:04.841Z,13.53
2022-09-28T03:53:32.549Z,13.80
2022-09-28T03:56:11.758Z,14.60
2022-09-28T03:58:39.262Z,16.97
2022-09-28T04:01:12.942Z,16.73
2022-09-28T04:03:43.344Z,17.30
2022-09-28T04:06:10.102Z,17.47
2022-09-28T04:08:36.708Z,17.80
2022-09-28T04:11:03.432Z,16.67
2022-09-28T04:13:30.912Z,18.57
2022-09-28T04:16:01.399Z,16.23
2022-09-28T04:18:32.528Z,17.47
2022-09-28T04:21:13.155Z,18.03
2022-09-28T04:23:44.512Z,18.87
2022-09-28T04:26:22.960Z,19.20
2022-09-28T04:29:08.715Z,15.73
2022-09-28T04:31:42.132Z,16.50
2022-09-28T04:34:09.060Z,17.50
2022-09-28T04:36:35.939Z,18.47
2022-09-28T04:39:02.939Z,19.70
2022-09-28T04:41:31.315Z,16.80
2022-09-28T04:43:58.039Z,20.20
2022-09-28T04:46:26.124Z,16.57
2022-09-28T04:49:06.684Z,18.13
2022-09-28T04:51:46.572Z,16.40
2022-09-28T04:54:13.231Z,17.30
2022-09-28T04:56:41.686Z,15.67
2022-09-28T04:59:08.292Z,14.73
2022-09-28T05:01:36.861Z,13.00
2022-09-28T05:04:41.525Z,15.23
2022-09-28T05:07:35.502Z,17.77
2022-09-28T05:10:04.222Z,18.73
2022-09-28T05:12:32.641Z,16.70
2022-09-28T05:15:00.533Z,20.60
2022-09-28T05:17:27.374Z,15.87
2022-09-28T05:20:07.699Z,16.70
2022-09-28T05:22:34.476Z,18.97
2022-09-28T05:25:02.792Z,19.20
2022-09-28T05:27:36.068Z,20.80
2022-09-28T05:30:16.585Z,18.60
2022-09-28T05:33:05.503Z,19.17
2022-09-28T05:35:42.222Z,17.17
2022-09-28T05:38:09.145Z,21.13
2022-09-28T05:40:35.868Z,17.50
2022-09-28T05:43:02.842Z,17.57
2022-09-28T05:45:30.131Z,19.93
2022-09-28T05:47:57.234Z,18.83
2022-09-28T05:50:24.480Z,17.50
2022-09-28T05:53:02.391Z,16.60
2022-09-28T05:55:29.627Z,20.50
2022-09-28T05:58:00.703Z,18.33
2022-09-28T06:00:28.556Z,20.87
2022-09-28T06:03:08.715Z,21.97
2022-09-28T06:05:37.303Z,20.43
2022-09-28T06:08:05.588Z,22.57
2022-09-28T06:10:34.640Z,19.17
2022-09-28T06:13:01.412Z,19.67
2022-09-28T06:15:30.221Z,18.87
2022-09-28T06:17:59.554Z,19.30
2022-09-28T06:20:38.572Z,20.30
2022-09-28T06:23:15.882Z,19.10
2022-09-28T06:25:43.150Z,25.97
2022-09-28T06:28:12.433Z,20.43
2022-09-28T06:30:40.385Z,18.27
2022-09-28T06:33:12.686Z,19.73
2022-09-28T06:35:40.606Z,21.07
2022-09-28T06:38:07.358Z,17.83
2022-09-28T06:40:34.979Z,20.80
2022-09-28T06:43:14.661Z,19.67
2022-09-28T06:45:59.753Z,18.40
2022-09-28T06:48:45.549Z,19.20
2022-09-28T06:51:19.881Z,18.87
2022-09-28T06:54:09.687Z,22.83
2022-09-28T06:56:39.862Z,21.93
2022-09-28T06:59:06.579Z,23.23
2022-09-28T07:01:34.776Z,22.00
2022-09-28T07:04:07.335Z,22.27
2022-09-28T07:06:52.705Z,21.47
2022-09-28T07:09:51.250Z,23.70
2022-09-28T07:12:40.488Z,21.87
2022-09-28T07:15:43.285Z,24.70
2022-09-28T07:18:12.992Z,19.60
2022-09-28T07:20:52.777Z,21.73
2022-09-28T07:23:20.802Z,20.33
2022-09-28T07:26:24.579Z,21.67
2022-09-28T07:29:01.292Z,21.03
2022-09-28T07:31:33.631Z,21.83
2022-09-28T07:34:19.220Z,25.47
2022-09-28T07:37:13.293Z,22.03
2022-09-28T07:39:59.446Z,28.60
2022-09-28T07:42:29.884Z,25.27
2022-09-28T07:44:59.933Z,25.90
2022-09-28T07:47:32.304Z,28.77
2022-09-28T07:50:30.736Z,27.20
2022-09-28T07:53:12.372Z,29.27
2022-09-28T07:56:05.637Z,31.40
2022-09-28T07:58:50.774Z,28.70
2022-09-28T08:01:36.107Z,30.33
2022-09-28T08:04:03.173Z,33.10
2022-09-28T08:06:30.617Z,31.03
2022-09-28T08:08:59.938Z,31.23
2022-09-28T08:11:46.530Z,31.63
2022-09-28T08:14:24.609Z,28.50
2022-09-28T08:17:15.585Z,28.77
2022-09-28T08:20:06.181Z,37.17
2022-09-28T08:22:33.026Z,34.77
2022-09-28T08:25:00.752Z,30.90
2022-09-28T08:27:28.893Z,26.23
2022-09-28T08:29:55.537Z,37.97
2022-09-28T08:32:54.809Z,32.93
2022-09-28T08:35:58.063Z,34.17
2022-09-28T08:38:44.660Z,30.67
2022-09-28T08:41:55.469Z,31.13
2022-09-28T08:44:55.669Z,24.13
2022-09-28T08:48:26.849Z,22.80
2022-09-28T08:51:30.944Z,25.27
2022-09-28T08:54:29.131Z,26.80
2022-09-28T08:57:07.235Z,28.87
2022-09-28T08:59:48.822Z,27.03
2022-09-28T09:02:29.033Z,27.10
2022-09-28T09:05:14.711Z,25.83
2022-09-28T09:08:12.638Z,25.80
2022-09-28T09:10:53.292Z,22.80
2022-09-28T09:13:31.293Z,20.57
2022-09-28T09:16:30.656Z,20.93
2022-09-28T09:19:15.695Z,22.47
2022-09-28T09:22:15.174Z,22.90
2022-09-28T09:24:56.175Z,21.33
2022-09-28T09:27:41.244Z,23.37
2022-09-28T09:30:21.921Z,18.67
2022-09-28T09:33:04.708Z,17.47
2022-09-28T09:35:55.594Z,19.03
2022-09-28T09:39:07.921Z,18.00
2022-09-28T09:42:14.898Z,17.83
2022-09-28T09:45:09.424Z,19.47
2022-09-28T09:48:07.893Z,18.33
2022-09-28T09:50:46.909Z,18.03
2022-09-28T09:53:25.410Z,18.77
2022-09-28T09:55:58.303Z,17.97
2022-09-28T09:58:37.227Z,19.53
2022-09-28T10:01:19.313Z,21.23
2022-09-28T10:04:27.153Z,21.93
2022-09-28T10:07:01.522Z,24.80
2022-09-28T10:09:32.617Z,20.70
2022-09-28T10:12:20.508Z,23.73
2022-09-28T10:14:47.468Z,21.83
2022-09-28T10:17:19.636Z,21.13
2022-09-28T10:20:14.720Z,21.47
2022-09-28T10:23:04.726Z,21.67
2022-09-28T10:25:36.252Z,19.63
2022-09-28T10:28:06.194Z,19.13
2022-09-28T10:30:44.284Z,19.20
2022-09-28T10:33:34.408Z,19.43
2022-09-28T10:36:06.707Z,16.53
2022-09-28T10:38:33.994Z,12.90
2022-09-28T10:41:13.368Z,15.63
2022-09-28T10:44:06.447Z,10.30
2022-09-28T10:47:05.349Z,10.63
2022-09-28T10:49:46.504Z,13.60
2022-09-28T10:52:37.876Z,11.40
2022-09-28T10:55:26.627Z,10.93
2022-09-28T10:57:53.399Z,10.60
2022-09-28T11:00:42.889Z,10.67
2022-09-28T11:03:26.307Z,10.73
2022-09-28T11:06:07.593Z,10.83
2022-09-28T11:08:39.051Z,12.17
2022-09-28T11:11:11.440Z,8.87
2022-09-28T11:13:46.983Z,10.30
2022-09-28T11:16:21.380Z,8.90
2022-09-28T11:18:48.204Z,8.27
2022-09-28T11:21:17.987Z,9.73
2022-09-28T11:24:01.265Z,10.33
2022-09-28T11:26:40.676Z,7.50
2022-09-28T11:29:35.625Z,7.73
2022-09-28T11:32:21.949Z,6.80
2022-09-28T11:36:00.559Z,8.80
2022-09-28T11:38:33.464Z,8.33
2022-09-28T11:41:26.813Z,9.57
2022-09-28T11:44:15.573Z,8.53
2022-09-28T11:46:52.184Z,12.80
2022-09-28T11:49:58.838Z,10.17
2022-09-28T11:52:36.411Z,10.53
2022-09-28T11:55:21.411Z,9.63
2022-09-28T11:58:03.500Z,9.13
2022-09-28T12:00:34.130Z,7.47
2022-09-28T12:03:10.784Z,11.87
2022-09-28T12:05:43.977Z,9.37
2022-09-28T12:08:28.856Z,7.47
2022-09-28T12:11:21.717Z,6.33
2022-09-28T12:14:21.528Z,5.23
2022-09-28T12:17:11.501Z,10.37
2022-09-28T12:20:00.601Z,4.93
2022-09-28T12:22:36.675Z,4.67
2022-09-28T12:25:06.829Z,6.13
2022-09-28T12:27:53.210Z,4.17
2022-09-28T12:30:25.574Z,3.37
2022-09-28T12:33:01.801Z,5.17
2022-09-28T12:35:40.022Z,8.20
2022-09-28T12:39:17.569Z,6.50
2022-09-28T12:42:08.949Z,5.23
2022-09-28T12:44:59.695Z,5.60
2022-09-28T12:47:52.447Z,11.27
2022-09-28T12:50:39.392Z,4.67
2022-09-28T12:53:36.049Z,9.33
2022-09-28T12:56:35.370Z,5.37
2022-09-28T12:59:23.409Z,3.60
2022-09-28T13:02:28.130Z,7.00
2022-09-28T13:05:27.996Z,6.70
2022-09-28T13:08:20.132Z,5.80
2022-09-28T13:11:07.974Z,3.43
2022-09-28T13:13:44.854Z,4.60
2022-09-28T13:16:33.629Z,3.30
2022-09-28T13:19:11.329Z,6.60
2022-09-28T13:21:45.594Z,5.43
2022-09-28T13:24:31.828Z,4.00
2022-09-28T13:27:06.462Z,4.57
2022-09-28T13:29:34.902Z,5.17
2022-09-28T13:32:03.173Z,3.13
2022-09-28T13:34:33.432Z,3.13
2022-09-28T13:37:19.747Z,3.67
2022-09-28T13:39:46.300Z,3.83
2022-09-28T13:42:24.907Z,8.27
2022-09-28T13:45:00.124Z,3.90
2022-09-28T13:47:48.581Z,3.73
2022-09-28T13:50:23.537Z,3.63
2022-09-28T13:53:03.829Z,4.33
2022-09-28T13:55:48.611Z,3.17
2022-09-28T13:58:25.535Z,3.67
2022-09-28T14:01:12.964Z,5.87
2022-09-28T14:04:11.007Z,5.27
2022-09-28T14:06:44.125Z,3.43
2022-09-28T14:09:15.755Z,2.37
2022-09-28T14:11:52.927Z,3.67
2022-09-28T14:14:44.555Z,2.03
2022-09-28T14:17:29.127Z,4.63
2022-09-28T14:20:06.670Z,3.80
2022-09-28T14:22:39.576Z,3.57
2022-09-28T14:25:23.500Z,3.53
2022-09-28T14:28:27.647Z,2.20
2022-09-28T14:30:56.683Z,5.00
2022-09-28T14:33:29.404Z,5.30
2022-09-28T14:36:04.234Z,3.93
2022-09-28T14:39:13.533Z,4.30
2022-09-28T14:41:42.901Z,6.33
2022-09-28T14:44:12.171Z,2.53
2022-09-28T14:46:48.484Z,2.07
2022-09-28T14:49:19.133Z,3.80
2022-09-28T14:51:51.272Z,3.33
2022-09-28T14:54:21.572Z,4.27
2022-09-28T14:56:54.180Z,2.63
2022-09-28T14:59:36.085Z,2.33
2022-09-28T15:02:12.297Z,3.57
2022-09-28T15:04:47.774Z,3.53
2022-09-28T15:07:27.109Z,3.00
2022-09-28T15:09:58.902Z,5.37
2022-09-28T15:12:31.608Z,3.30
2022-09-28T15:15:05.438Z,4.27
2022-09-28T15:17:39.487Z,3.83
2022-09-28T15:20:20.928Z,2.57
2022-09-28T15:22:49.727Z,2.30
2022-09-28T15:25:22.122Z,4.13
2022-09-28T15:27:54.802Z,2.90
2022-09-28T15:30:28.038Z,3.63
2022-09-28T15:32:56.864Z,3.93
2022-09-28T15:35:26.296Z,3.13
2022-09-28T15:37:55.023Z,3.67
2022-09-28T15:40:31.577Z,2.70
2022-09-28T15:42:59.827Z,3.83
2022-09-28T15:45:37.976Z,3.17
2022-09-28T15:48:33.316Z,1.93
2022-09-28T15:51:12.001Z,4.07
2022-09-28T15:53:43.744Z,3.00
2022-09-28T15:56:11.696Z,3.47
2022-09-28T15:58:39.183Z,3.73
2022-09-28T16:01:29.195Z,4.40
2022-09-28T16:03:55.817Z,9.93
2022-09-28T16:06:23.349Z,6.37
2022-09-28T16:08:49.991Z,3.33
2022-09-28T16:11:27.766Z,3.30
2022-09-28T16:14:14.120Z,3.10
2022-09-28T16:16:52.099Z,4.20
2022-09-28T16:19:31.921Z,4.50
2022-09-28T16:22:01.842Z,4.13
2022-09-28T16:24:31.828Z,13.03
2022-09-28T16:27:02.499Z,23.57
2022-09-28T16:29:41.912Z,5.53
2022-09-28T16:32:24.695Z,11.90
2022-09-28T16:35:10.735Z,11.87
2022-09-28T16:37:40.983Z,6.50
2022-09-28T16:40:11.587Z,3.90
2022-09-28T16:42:40.452Z,7.57
2022-09-28T16:45:13.701Z,9.63
2022-09-28T16:47:40.565Z,4.50
2022-09-28T16:50:07.704Z,6.23
2022-09-28T16:52:55.757Z,6.47
2022-09-28T16:55:40.080Z,9.60
2022-09-28T16:58:08.101Z,8.67
2022-09-28T17:00:34.875Z,6.27
2022-09-28T17:03:02.199Z,10.60
2022-09-28T17:05:29.404Z,5.80
2022-09-28T17:08:03.918Z,4.67
2022-09-28T17:11:12.431Z,6.43
2022-09-28T17:13:33.718Z,6.57
2022-09-28T17:16:03.095Z,5.03
2022-09-28T17:18:31.853Z,4.63
2022-09-28T17:21:03.132Z,7.37
2022-09-28T17:23:30.228Z,7.47
2022-09-28T17:25:58.886Z,5.97
2022-09-28T17:28:28.504Z,7.27
2022-09-28T17:30:55.469Z,5.90
2022-09-28T17:33:22.115Z,8.93
2022-09-28T17:36:00.117Z,7.27
2022-09-28T17:38:27.491Z,8.37
2022-09-28T17:40:54.332Z,8.00
2022-09-28T17:43:22.131Z,6.33
2022-09-28T17:45:50.308Z,5.43
2022-09-28T17:48:25.551Z,6.70
2022-09-28T17:50:52.264Z,8.30
2022-09-28T17:53:19.613Z,6.10
2022-09-28T17:59:48.114Z,7.60
2022-09-28T18:06:07.640Z,8.87
2022-09-28T18:08:34.548Z,10.20
2022-09-28T18:11:03.925Z,11.43
2022-09-28T18:13:30.588Z,9.73
2022-09-28T18:15:57.326Z,11.77
2022-09-28T18:18:24.748Z,13.97
2022-09-28T18:20:52.072Z,14.27
2022-09-28T18:23:21.946Z,14.33
2022-09-28T18:26:54.001Z,13.57
2022-09-28T18:32:18.948Z,17.53
2022-09-28T18:41:10.570Z,17.07
2022-09-28T18:41:27.227Z,14.03
2022-09-28T18:44:00.357Z,15.50
2022-09-28T18:46:28.878Z,12.30
2022-09-28T18:48:56.101Z,17.53
2022-09-28T18:54:09.705Z,13.27
2022-09-28T19:01:29.958Z,18.60
2022-09-28T19:04:05.358Z,20.60
2022-09-28T19:06:32.683Z,16.27
2022-09-28T19:08:59.674Z,15.40
2022-09-28T19:11:27.275Z,16.70
2022-09-28T19:13:55.106Z,16.40
2022-09-28T19:16:24.820Z,14.83
2022-09-28T19:18:53.507Z,17.17
2022-09-28T19:21:28.871Z,16.33
2022-09-28T19:23:55.838Z,17.40
2022-09-28T19:26:25.263Z,17.60
2022-09-28T19:28:55.154Z,18.13
2022-09-28T19:31:22.130Z,13.73
2022-09-28T19:33:53.014Z,13.60
2022-09-28T19:36:23.457Z,15.60
2022-09-28T19:38:51.901Z,15.17
2022-09-28T19:41:43.110Z,14.00
2022-09-28T19:44:19.390Z,13.83
2022-09-28T19:46:46.588Z,13.80
2022-09-28T19:49:22.093Z,13.27
2022-09-28T19:52:11.635Z,11.93
2022-09-28T19:54:38.033Z,11.90
2022-09-28T19:57:09.116Z,13.43
2022-09-28T19:59:37.324Z,12.13
2022-09-28T20:02:05.878Z,12.60
2022-09-28T20:04:35.259Z,13.37
2022-09-28T20:07:02.587Z,13.57
2022-09-28T20:09:29.562Z,13.83
2022-09-28T20:11:56.888Z,13.63
2022-09-28T20:14:25.935Z,13.53
2022-09-28T20:16:57.163Z,13.70
2022-09-28T20:19:23.859Z,18.53
2022-09-28T20:21:50.718Z,16.13
2022-09-28T20:24:17.439Z,16.03
2022-09-28T20:26:45.686Z,13.37
2022-09-28T20:29:12.433Z,13.97
2022-09-28T20:31:39.422Z,18.90
2022-09-28T20:34:10.162Z,13.97
2022-09-28T20:36:44.466Z,14.23
2022-09-28T20:39:11.825Z,15.30
2022-09-28T20:41:38.781Z,13.90
2022-09-28T20:44:07.534Z,13.77
2022-09-28T20:46:37.907Z,15.50
2022-09-28T20:49:05.155Z,13.90
2022-09-28T20:51:31.952Z,13.60
2022-09-28T20:54:01.714Z,14.33
2022-09-28T20:56:37.458Z,13.73
2022-09-28T20:59:09.540Z,15.53
2022-09-28T21:01:36.299Z,13.37
2022-09-28T21:04:07.316Z,15.80
2022-09-28T21:06:36.318Z,13.00
2022-09-28T21:09:04.574Z,15.77
2022-09-28T21:11:35.429Z,13.67
2022-09-28T21:14:04.855Z,12.57
2022-09-28T21:16:33.429Z,12.73
2022-09-28T21:19:00.305Z,15.83
2022-09-28T21:21:27.008Z,13.10
2022-09-28T21:23:54.932Z,13.33
2022-09-28T21:26:26.558Z,15.07
2022-09-28T21:28:57.408Z,13.03
2022-09-28T21:31:29.220Z,14.43
2022-09-28T21:33:57.080Z,12.97
2022-09-28T21:36:23.901Z,13.67
2022-09-28T21:38:50.569Z,18.70
2022-09-28T21:41:17.244Z,12.90
2022-09-28T21:43:45.275Z,13.67
2022-09-28T21:46:12.007Z,13.43
2022-09-28T21:48:38.820Z,12.87
2022-09-28T21:51:12.496Z,14.23
2022-09-28T21:53:39.399Z,11.97
2022-09-28T21:56:10.284Z,13.77
2022-09-28T21:58:37.282Z,13.30
2022-09-28T22:01:23.276Z,14.27
2022-09-28T22:03:51.941Z,12.93
2022-09-28T22:06:23.027Z,11.93
2022-09-28T22:08:50.209Z,11.53
2022-09-28T22:11:23.295Z,11.07
2022-09-28T22:13:56.503Z,12.37
2022-09-28T22:16:26.277Z,11.73
2022-09-28T22:19:05.751Z,15.97
2022-09-28T22:21:55.816Z,11.77
2022-09-28T22:24:40.200Z,11.53
2022-09-28T22:27:09.218Z,13.03
2022-09-28T22:29:50.336Z,12.13
2022-09-28T22:32:21.499Z,12.33
2022-09-28T22:34:48.124Z,12.07
2022-09-28T22:37:16.112Z,11.13
2022-09-28T22:39:45.602Z,10.60
2022-09-28T22:42:12.186Z,10.80
2022-09-28T22:44:40.420Z,10.37
2022-09-28T22:47:07.109Z,11.53
2022-09-28T22:49:33.672Z,11.70
2022-09-28T22:52:00.621Z,11.00
2022-09-28T22:54:27.189Z,11.33
2022-09-28T22:56:53.772Z,15.03
2022-09-28T22:59:20.553Z,13.50
2022-09-28T23:01:47.416Z,11.23
2022-09-28T23:04:14.085Z,10.80
2022-09-28T23:06:41.092Z,9.63
2022-09-28T23:09:07.733Z,10.23
2022-09-28T23:11:34.305Z,10.87
2022-09-28T23:14:00.962Z,10.37
2022-09-28T23:16:27.953Z,10.83
2022-09-28T23:18:55.929Z,12.33
2022-09-28T23:21:25.226Z,12.07
2022-09-28T23:23:54.843Z,10.83
2022-09-28T23:26:24.503Z,12.63
2022-09-28T23:28:51.431Z,11.87
2022-09-28T23:31:24.065Z,12.83
2022-09-28T23:33:51.274Z,10.17
2022-09-28T23:36:18.264Z,11.00
2022-09-28T23:38:44.906Z,11.47
2022-09-28T23:41:11.745Z,13.43
2022-09-28T23:43:38.365Z,10.93
2022-09-28T23:46:05.841Z,11.57
2022-09-28T23:48:32.993Z,12.60
2022-09-28T23:50:59.875Z,11.50
2022-09-28T23:53:26.796Z,11.90
2022-09-28T23:55:53.803Z,12.03
2022-09-28T23:58:20.588Z,10.70
